sensor_id;sensor_type;location;lat;lon;timestamp;pressure;altitude;pressure_sealevel;temperature
18219;BMP180;9234;49.344;11.120;2023-11-21T00:00:08;96916.00;;;9.30
18219;BMP180;9234;49.344;11.120;2023-11-21T00:02:39;96918.00;;;9.30
18219;BMP180;9234;49.344;11.120;2023-11-21T00:05:11;96912.00;;;9.30
18219;BMP180;9234;49.344;11.120;2023-11-21T00:07:41;96912.00;;;9.30
18219;BMP180;9234;49.344;11.120;2023-11-21T00:10:11;96918.00;;;9.30
18219;BMP180;9234;49.344;11.120;2023-11-21T00:12:41;96913.00;;;9.30
18219;BMP180;9234;49.344;11.120;2023-11-21T00:15:10;96916.00;;;9.30
18219;BMP180;9234;49.344;11.120;2023-11-21T00:17:39;96909.00;;;9.30
18219;BMP180;9234;49.344;11.120;2023-11-21T00:20:10;96909.00;;;9.30
18219;BMP180;9234;49.344;11.120;2023-11-21T00:22:41;96917.00;;;9.30
18219;BMP180;9234;49.344;11.120;2023-11-21T00:25:10;96912.00;;;9.30
18219;BMP180;9234;49.344;11.120;2023-11-21T00:27:38;96914.00;;;9.30
18219;BMP180;9234;49.344;11.120;2023-11-21T00:30:08;96918.00;;;9.30
18219;BMP180;9234;49.344;11.120;2023-11-21T00:32:37;96919.00;;;9.30
18219;BMP180;9234;49.344;11.120;2023-11-21T00:35:06;96910.00;;;9.30
18219;BMP180;9234;49.344;11.120;2023-11-21T00:37:36;96908.00;;;9.20
18219;BMP180;9234;49.344;11.120;2023-11-21T00:40:08;96920.00;;;9.20
18219;BMP180;9234;49.344;11.120;2023-11-21T00:42:36;96902.00;;;9.20
18219;BMP180;9234;49.344;11.120;2023-11-21T00:45:06;96895.00;;;9.30
18219;BMP180;9234;49.344;11.120;2023-11-21T00:47:35;96904.00;;;9.20
18219;BMP180;9234;49.344;11.120;2023-11-21T00:50:05;96897.00;;;9.20
18219;BMP180;9234;49.344;11.120;2023-11-21T00:52:37;96895.00;;;9.20
18219;BMP180;9234;49.344;11.120;2023-11-21T00:55:07;96886.00;;;9.20
18219;BMP180;9234;49.344;11.120;2023-11-21T00:57:36;96891.00;;;9.20
18219;BMP180;9234;49.344;11.120;2023-11-21T01:00:06;96897.00;;;9.20
18219;BMP180;9234;49.344;11.120;2023-11-21T01:02:37;96883.00;;;9.20
18219;BMP180;9234;49.344;11.120;2023-11-21T01:05:06;96885.00;;;9.20
18219;BMP180;9234;49.344;11.120;2023-11-21T01:07:35;96884.00;;;9.20
18219;BMP180;9234;49.344;11.120;2023-11-21T01:10:06;96894.00;;;9.20
18219;BMP180;9234;49.344;11.120;2023-11-21T01:12:37;96900.00;;;9.10
18219;BMP180;9234;49.344;11.120;2023-11-21T01:15:06;96899.00;;;9.10
18219;BMP180;9234;49.344;11.120;2023-11-21T01:17:35;96896.00;;;9.10
18219;BMP180;9234;49.344;11.120;2023-11-21T01:20:05;96899.00;;;9.10
18219;BMP180;9234;49.344;11.120;2023-11-21T01:22:40;96903.00;;;9.10
18219;BMP180;9234;49.344;11.120;2023-11-21T01:25:10;96906.00;;;9.10
18219;BMP180;9234;49.344;11.120;2023-11-21T01:27:38;96902.00;;;9.10
18219;BMP180;9234;49.344;11.120;2023-11-21T01:30:08;96903.00;;;9.10
18219;BMP180;9234;49.344;11.120;2023-11-21T01:32:37;96902.00;;;9.10
18219;BMP180;9234;49.344;11.120;2023-11-21T01:35:07;96893.00;;;9.10
18219;BMP180;9234;49.344;11.120;2023-11-21T01:37:37;96900.00;;;9.10
18219;BMP180;9234;49.344;11.120;2023-11-21T01:40:09;96907.00;;;9.10
18219;BMP180;9234;49.344;11.120;2023-11-21T01:42:41;96890.00;;;9.10
18219;BMP180;9234;49.344;11.120;2023-11-21T01:45:10;96897.00;;;9.10
18219;BMP180;9234;49.344;11.120;2023-11-21T01:47:41;96909.00;;;9.10
18219;BMP180;9234;49.344;11.120;2023-11-21T01:50:16;96897.00;;;9.10
18219;BMP180;9234;49.344;11.120;2023-11-21T01:52:46;96896.00;;;9.10
18219;BMP180;9234;49.344;11.120;2023-11-21T01:55:18;96891.00;;;9.10
18219;BMP180;9234;49.344;11.120;2023-11-21T01:57:55;96890.00;;;9.10
18219;BMP180;9234;49.344;11.120;2023-11-21T02:00:24;96885.00;;;9.10
18219;BMP180;9234;49.344;11.120;2023-11-21T02:02:55;96888.00;;;9.10
18219;BMP180;9234;49.344;11.120;2023-11-21T02:05:24;96881.00;;;9.20
18219;BMP180;9234;49.344;11.120;2023-11-21T02:07:53;96890.00;;;9.20
18219;BMP180;9234;49.344;11.120;2023-11-21T02:10:22;96886.00;;;9.20
18219;BMP180;9234;49.344;11.120;2023-11-21T02:12:52;96875.00;;;9.20
18219;BMP180;9234;49.344;11.120;2023-11-21T02:15:21;96883.00;;;9.20
18219;BMP180;9234;49.344;11.120;2023-11-21T02:17:50;96887.00;;;9.20
18219;BMP180;9234;49.344;11.120;2023-11-21T02:20:22;96881.00;;;9.20
18219;BMP180;9234;49.344;11.120;2023-11-21T02:22:55;96872.00;;;9.20
18219;BMP180;9234;49.344;11.120;2023-11-21T02:25:28;96884.00;;;9.20
18219;BMP180;9234;49.344;11.120;2023-11-21T02:27:59;96887.00;;;9.20
18219;BMP180;9234;49.344;11.120;2023-11-21T02:30:28;96879.00;;;9.20
18219;BMP180;9234;49.344;11.120;2023-11-21T02:32:59;96871.00;;;9.20
18219;BMP180;9234;49.344;11.120;2023-11-21T02:35:27;96874.00;;;9.20
18219;BMP180;9234;49.344;11.120;2023-11-21T02:38:00;96867.00;;;9.20
18219;BMP180;9234;49.344;11.120;2023-11-21T02:40:30;96884.00;;;9.20
18219;BMP180;9234;49.344;11.120;2023-11-21T02:42:58;96876.00;;;9.20
18219;BMP180;9234;49.344;11.120;2023-11-21T02:45:27;96875.00;;;9.20
18219;BMP180;9234;49.344;11.120;2023-11-21T02:47:55;96877.00;;;9.20
18219;BMP180;9234;49.344;11.120;2023-11-21T02:50:26;96863.00;;;9.20
18219;BMP180;9234;49.344;11.120;2023-11-21T02:52:55;96855.00;;;9.20
18219;BMP180;9234;49.344;11.120;2023-11-21T02:55:25;96865.00;;;9.20
18219;BMP180;9234;49.344;11.120;2023-11-21T02:57:54;96863.00;;;9.20
18219;BMP180;9234;49.344;11.120;2023-11-21T03:00:24;96864.00;;;9.20
18219;BMP180;9234;49.344;11.120;2023-11-21T03:02:55;96869.00;;;9.20
18219;BMP180;9234;49.344;11.120;2023-11-21T03:05:25;96863.00;;;9.10
18219;BMP180;9234;49.344;11.120;2023-11-21T03:07:54;96859.00;;;9.10
18219;BMP180;9234;49.344;11.120;2023-11-21T03:10:22;96854.00;;;9.10
18219;BMP180;9234;49.344;11.120;2023-11-21T03:12:52;96862.00;;;9.10
18219;BMP180;9234;49.344;11.120;2023-11-21T03:15:20;96867.00;;;9.10
18219;BMP180;9234;49.344;11.120;2023-11-21T03:17:48;96867.00;;;9.10
18219;BMP180;9234;49.344;11.120;2023-11-21T03:20:17;96873.00;;;9.10
18219;BMP180;9234;49.344;11.120;2023-11-21T03:22:45;96870.00;;;9.10
18219;BMP180;9234;49.344;11.120;2023-11-21T03:25:15;96874.00;;;9.10
18219;BMP180;9234;49.344;11.120;2023-11-21T03:27:44;96886.00;;;9.10
18219;BMP180;9234;49.344;11.120;2023-11-21T03:30:14;96889.00;;;9.10
18219;BMP180;9234;49.344;11.120;2023-11-21T03:32:43;96886.00;;;9.10
18219;BMP180;9234;49.344;11.120;2023-11-21T03:35:11;96886.00;;;9.10
18219;BMP180;9234;49.344;11.120;2023-11-21T03:37:40;96886.00;;;9.10
18219;BMP180;9234;49.344;11.120;2023-11-21T03:40:10;96872.00;;;9.10
18219;BMP180;9234;49.344;11.120;2023-11-21T03:42:40;96878.00;;;9.10
18219;BMP180;9234;49.344;11.120;2023-11-21T03:45:09;96883.00;;;9.10
18219;BMP180;9234;49.344;11.120;2023-11-21T03:47:41;96883.00;;;9.10
18219;BMP180;9234;49.344;11.120;2023-11-21T03:50:10;96880.00;;;9.10
18219;BMP180;9234;49.344;11.120;2023-11-21T03:52:38;96887.00;;;9.10
18219;BMP180;9234;49.344;11.120;2023-11-21T03:55:07;96871.00;;;9.10
18219;BMP180;9234;49.344;11.120;2023-11-21T03:57:42;96879.00;;;9.00
18219;BMP180;9234;49.344;11.120;2023-11-21T04:00:12;96878.00;;;9.00
18219;BMP180;9234;49.344;11.120;2023-11-21T04:02:41;96881.00;;;9.00
18219;BMP180;9234;49.344;11.120;2023-11-21T04:05:10;96892.00;;;9.00
18219;BMP180;9234;49.344;11.120;2023-11-21T04:07:39;96891.00;;;9.00
18219;BMP180;9234;49.344;11.120;2023-11-21T04:10:08;96886.00;;;9.00
18219;BMP180;9234;49.344;11.120;2023-11-21T04:12:39;96885.00;;;9.00
18219;BMP180;9234;49.344;11.120;2023-11-21T04:15:09;96875.00;;;8.90
18219;BMP180;9234;49.344;11.120;2023-11-21T04:17:38;96893.00;;;8.90
18219;BMP180;9234;49.344;11.120;2023-11-21T04:20:09;96870.00;;;8.90
18219;BMP180;9234;49.344;11.120;2023-11-21T04:22:38;96875.00;;;8.90
18219;BMP180;9234;49.344;11.120;2023-11-21T04:25:14;96872.00;;;8.90
18219;BMP180;9234;49.344;11.120;2023-11-21T04:27:45;96874.00;;;8.90
18219;BMP180;9234;49.344;11.120;2023-11-21T04:30:15;96876.00;;;8.80
18219;BMP180;9234;49.344;11.120;2023-11-21T04:32:44;96881.00;;;8.90
18219;BMP180;9234;49.344;11.120;2023-11-21T04:35:13;96870.00;;;8.80
18219;BMP180;9234;49.344;11.120;2023-11-21T04:37:41;96880.00;;;8.80
18219;BMP180;9234;49.344;11.120;2023-11-21T04:40:11;96881.00;;;8.80
18219;BMP180;9234;49.344;11.120;2023-11-21T04:42:39;96886.00;;;8.80
18219;BMP180;9234;49.344;11.120;2023-11-21T04:45:11;96894.00;;;8.80
18219;BMP180;9234;49.344;11.120;2023-11-21T04:47:40;96901.00;;;8.80
18219;BMP180;9234;49.344;11.120;2023-11-21T04:50:09;96900.00;;;8.80
18219;BMP180;9234;49.344;11.120;2023-11-21T04:52:39;96895.00;;;8.80
18219;BMP180;9234;49.344;11.120;2023-11-21T04:55:08;96908.00;;;8.80
18219;BMP180;9234;49.344;11.120;2023-11-21T04:57:38;96910.00;;;8.90
18219;BMP180;9234;49.344;11.120;2023-11-21T05:00:10;96901.00;;;8.90
18219;BMP180;9234;49.344;11.120;2023-11-21T05:02:40;96899.00;;;8.90
18219;BMP180;9234;49.344;11.120;2023-11-21T05:05:10;96903.00;;;8.90
18219;BMP180;9234;49.344;11.120;2023-11-21T05:07:40;96892.00;;;8.90
18219;BMP180;9234;49.344;11.120;2023-11-21T05:10:10;96900.00;;;8.90
18219;BMP180;9234;49.344;11.120;2023-11-21T05:12:41;96916.00;;;8.90
18219;BMP180;9234;49.344;11.120;2023-11-21T05:15:14;96916.00;;;8.90
18219;BMP180;9234;49.344;11.120;2023-11-21T05:17:43;96911.00;;;8.90
18219;BMP180;9234;49.344;11.120;2023-11-21T05:20:14;96915.00;;;8.90
18219;BMP180;9234;49.344;11.120;2023-11-21T05:22:47;96907.00;;;8.90
18219;BMP180;9234;49.344;11.120;2023-11-21T05:25:16;96903.00;;;8.90
18219;BMP180;9234;49.344;11.120;2023-11-21T05:27:45;96915.00;;;9.00
18219;BMP180;9234;49.344;11.120;2023-11-21T05:30:14;96921.00;;;9.00
18219;BMP180;9234;49.344;11.120;2023-11-21T05:32:42;96920.00;;;8.90
18219;BMP180;9234;49.344;11.120;2023-11-21T05:35:10;96911.00;;;8.90
18219;BMP180;9234;49.344;11.120;2023-11-21T05:37:42;96913.00;;;8.90
18219;BMP180;9234;49.344;11.120;2023-11-21T05:40:13;96927.00;;;8.90
18219;BMP180;9234;49.344;11.120;2023-11-21T05:42:41;96919.00;;;8.90
18219;BMP180;9234;49.344;11.120;2023-11-21T05:45:10;96935.00;;;8.90
18219;BMP180;9234;49.344;11.120;2023-11-21T05:47:43;96935.00;;;8.90
18219;BMP180;9234;49.344;11.120;2023-11-21T05:50:14;96929.00;;;8.90
18219;BMP180;9234;49.344;11.120;2023-11-21T05:52:45;96937.00;;;8.90
18219;BMP180;9234;49.344;11.120;2023-11-21T05:55:15;96928.00;;;8.90
18219;BMP180;9234;49.344;11.120;2023-11-21T05:57:44;96942.00;;;8.90
18219;BMP180;9234;49.344;11.120;2023-11-21T06:00:14;96939.00;;;8.90
18219;BMP180;9234;49.344;11.120;2023-11-21T06:02:47;96949.00;;;8.90
18219;BMP180;9234;49.344;11.120;2023-11-21T06:05:19;96926.00;;;8.90
18219;BMP180;9234;49.344;11.120;2023-11-21T06:07:47;96946.00;;;9.00
18219;BMP180;9234;49.344;11.120;2023-11-21T06:10:19;96945.00;;;9.00
18219;BMP180;9234;49.344;11.120;2023-11-21T06:12:47;96948.00;;;9.00
18219;BMP180;9234;49.344;11.120;2023-11-21T06:15:15;96948.00;;;9.00
18219;BMP180;9234;49.344;11.120;2023-11-21T06:17:46;96961.00;;;9.00
18219;BMP180;9234;49.344;11.120;2023-11-21T06:20:20;96954.00;;;9.00
18219;BMP180;9234;49.344;11.120;2023-11-21T06:22:50;96963.00;;;9.00
18219;BMP180;9234;49.344;11.120;2023-11-21T06:25:20;96960.00;;;9.00
18219;BMP180;9234;49.344;11.120;2023-11-21T06:27:50;96958.00;;;9.00
18219;BMP180;9234;49.344;11.120;2023-11-21T06:30:19;96956.00;;;8.90
18219;BMP180;9234;49.344;11.120;2023-11-21T06:32:47;96969.00;;;8.90
18219;BMP180;9234;49.344;11.120;2023-11-21T06:35:17;96959.00;;;8.90
18219;BMP180;9234;49.344;11.120;2023-11-21T06:37:45;96957.00;;;8.90
18219;BMP180;9234;49.344;11.120;2023-11-21T06:40:17;96969.00;;;8.90
18219;BMP180;9234;49.344;11.120;2023-11-21T06:42:49;96954.00;;;8.90
18219;BMP180;9234;49.344;11.120;2023-11-21T06:45:18;96957.00;;;8.90
18219;BMP180;9234;49.344;11.120;2023-11-21T06:47:47;96963.00;;;8.90
18219;BMP180;9234;49.344;11.120;2023-11-21T06:50:15;96957.00;;;8.80
18219;BMP180;9234;49.344;11.120;2023-11-21T06:52:44;96976.00;;;8.90
18219;BMP180;9234;49.344;11.120;2023-11-21T06:55:12;96979.00;;;8.90
18219;BMP180;9234;49.344;11.120;2023-11-21T06:57:41;96981.00;;;8.90
18219;BMP180;9234;49.344;11.120;2023-11-21T07:00:13;96971.00;;;8.90
18219;BMP180;9234;49.344;11.120;2023-11-21T07:02:44;96982.00;;;8.90
18219;BMP180;9234;49.344;11.120;2023-11-21T07:05:13;96996.00;;;9.00
18219;BMP180;9234;49.344;11.120;2023-11-21T07:07:42;97005.00;;;9.00
18219;BMP180;9234;49.344;11.120;2023-11-21T07:10:11;97008.00;;;9.00
18219;BMP180;9234;49.344;11.120;2023-11-21T07:12:39;97002.00;;;9.00
18219;BMP180;9234;49.344;11.120;2023-11-21T07:15:11;96998.00;;;9.00
18219;BMP180;9234;49.344;11.120;2023-11-21T07:17:39;97010.00;;;9.10
18219;BMP180;9234;49.344;11.120;2023-11-21T07:20:09;96998.00;;;9.10
18219;BMP180;9234;49.344;11.120;2023-11-21T07:22:38;97018.00;;;9.10
18219;BMP180;9234;49.344;11.120;2023-11-21T07:25:07;97012.00;;;9.20
18219;BMP180;9234;49.344;11.120;2023-11-21T07:27:36;97027.00;;;9.20
18219;BMP180;9234;49.344;11.120;2023-11-21T07:30:06;97026.00;;;9.30
18219;BMP180;9234;49.344;11.120;2023-11-21T07:32:43;97024.00;;;9.30
18219;BMP180;9234;49.344;11.120;2023-11-21T07:35:15;97029.00;;;9.30
18219;BMP180;9234;49.344;11.120;2023-11-21T07:37:46;97030.00;;;9.30
18219;BMP180;9234;49.344;11.120;2023-11-21T07:40:16;97024.00;;;9.30
18219;BMP180;9234;49.344;11.120;2023-11-21T07:42:44;97028.00;;;9.30
18219;BMP180;9234;49.344;11.120;2023-11-21T07:45:13;97039.00;;;9.30
18219;BMP180;9234;49.344;11.120;2023-11-21T07:47:43;97039.00;;;9.40
18219;BMP180;9234;49.344;11.120;2023-11-21T07:50:17;97038.00;;;9.40
18219;BMP180;9234;49.344;11.120;2023-11-21T07:52:49;97052.00;;;9.40
18219;BMP180;9234;49.344;11.120;2023-11-21T07:55:20;97042.00;;;9.40
18219;BMP180;9234;49.344;11.120;2023-11-21T07:57:48;97042.00;;;9.50
18219;BMP180;9234;49.344;11.120;2023-11-21T08:00:17;97049.00;;;9.50
18219;BMP180;9234;49.344;11.120;2023-11-21T08:02:49;97052.00;;;9.60
18219;BMP180;9234;49.344;11.120;2023-11-21T08:05:22;97053.00;;;9.60
18219;BMP180;9234;49.344;11.120;2023-11-21T08:08:00;97047.00;;;9.70
18219;BMP180;9234;49.344;11.120;2023-11-21T08:10:31;97058.00;;;9.70
18219;BMP180;9234;49.344;11.120;2023-11-21T08:12:59;97053.00;;;9.80
18219;BMP180;9234;49.344;11.120;2023-11-21T08:15:30;97042.00;;;9.80
18219;BMP180;9234;49.344;11.120;2023-11-21T08:18:00;97043.00;;;9.90
18219;BMP180;9234;49.344;11.120;2023-11-21T08:20:29;97044.00;;;10.00
18219;BMP180;9234;49.344;11.120;2023-11-21T08:22:59;97050.00;;;10.10
18219;BMP180;9234;49.344;11.120;2023-11-21T08:25:28;97062.00;;;10.20
18219;BMP180;9234;49.344;11.120;2023-11-21T08:28:00;97059.00;;;10.30
18219;BMP180;9234;49.344;11.120;2023-11-21T08:30:28;97047.00;;;10.40
18219;BMP180;9234;49.344;11.120;2023-11-21T08:32:57;97053.00;;;10.40
18219;BMP180;9234;49.344;11.120;2023-11-21T08:35:26;97049.00;;;10.50
18219;BMP180;9234;49.344;11.120;2023-11-21T08:37:55;97045.00;;;10.50
18219;BMP180;9234;49.344;11.120;2023-11-21T08:40:24;97050.00;;;10.50
18219;BMP180;9234;49.344;11.120;2023-11-21T08:42:52;97058.00;;;10.60
18219;BMP180;9234;49.344;11.120;2023-11-21T08:45:21;97047.00;;;10.60
18219;BMP180;9234;49.344;11.120;2023-11-21T08:47:50;97073.00;;;10.60
18219;BMP180;9234;49.344;11.120;2023-11-21T08:50:18;97061.00;;;10.60
18219;BMP180;9234;49.344;11.120;2023-11-21T08:52:48;97064.00;;;10.60
18219;BMP180;9234;49.344;11.120;2023-11-21T08:55:16;97075.00;;;10.60
18219;BMP180;9234;49.344;11.120;2023-11-21T08:57:46;97074.00;;;10.60
18219;BMP180;9234;49.344;11.120;2023-11-21T09:00:15;97076.00;;;10.70
18219;BMP180;9234;49.344;11.120;2023-11-21T09:02:44;97073.00;;;10.70
18219;BMP180;9234;49.344;11.120;2023-11-21T09:05:15;97078.00;;;10.80
18219;BMP180;9234;49.344;11.120;2023-11-21T09:07:44;97083.00;;;10.90
18219;BMP180;9234;49.344;11.120;2023-11-21T09:10:14;97083.00;;;10.90
18219;BMP180;9234;49.344;11.120;2023-11-21T09:12:42;97078.00;;;10.90
18219;BMP180;9234;49.344;11.120;2023-11-21T09:15:11;97104.00;;;10.90
18219;BMP180;9234;49.344;11.120;2023-11-21T09:17:39;97089.00;;;10.90
18219;BMP180;9234;49.344;11.120;2023-11-21T09:20:09;97107.00;;;10.90
18219;BMP180;9234;49.344;11.120;2023-11-21T09:22:38;97096.00;;;10.90
18219;BMP180;9234;49.344;11.120;2023-11-21T09:25:07;97109.00;;;10.90
18219;BMP180;9234;49.344;11.120;2023-11-21T09:27:38;97111.00;;;10.80
18219;BMP180;9234;49.344;11.120;2023-11-21T09:30:07;97107.00;;;10.80
18219;BMP180;9234;49.344;11.120;2023-11-21T09:32:38;97104.00;;;10.90
18219;BMP180;9234;49.344;11.120;2023-11-21T09:35:10;97117.00;;;10.90
18219;BMP180;9234;49.344;11.120;2023-11-21T09:37:41;97116.00;;;11.00
18219;BMP180;9234;49.344;11.120;2023-11-21T09:40:12;97116.00;;;11.00
18219;BMP180;9234;49.344;11.120;2023-11-21T09:42:54;97109.00;;;11.00
18219;BMP180;9234;49.344;11.120;2023-11-21T09:45:26;97113.00;;;11.10
18219;BMP180;9234;49.344;11.120;2023-11-21T09:47:56;97116.00;;;11.10
18219;BMP180;9234;49.344;11.120;2023-11-21T09:50:29;97115.00;;;11.20
18219;BMP180;9234;49.344;11.120;2023-11-21T09:53:13;97127.00;;;11.10
18219;BMP180;9234;49.344;11.120;2023-11-21T09:55:47;97116.00;;;11.20
18219;BMP180;9234;49.344;11.120;2023-11-21T09:58:19;97121.00;;;11.20
18219;BMP180;9234;49.344;11.120;2023-11-21T10:00:53;97109.00;;;11.20
18219;BMP180;9234;49.344;11.120;2023-11-21T10:03:21;97105.00;;;11.20
18219;BMP180;9234;49.344;11.120;2023-11-21T10:05:51;97099.00;;;11.20
18219;BMP180;9234;49.344;11.120;2023-11-21T10:08:24;97113.00;;;11.30
18219;BMP180;9234;49.344;11.120;2023-11-21T10:11:14;97101.00;;;11.40
18219;BMP180;9234;49.344;11.120;2023-11-21T10:13:46;97128.00;;;11.50
18219;BMP180;9234;49.344;11.120;2023-11-21T10:16:18;97109.00;;;11.60
18219;BMP180;9234;49.344;11.120;2023-11-21T10:18:52;97115.00;;;11.60
18219;BMP180;9234;49.344;11.120;2023-11-21T10:21:38;97119.00;;;11.60
18219;BMP180;9234;49.344;11.120;2023-11-21T10:24:07;97109.00;;;11.70
18219;BMP180;9234;49.344;11.120;2023-11-21T10:26:36;97111.00;;;11.70
18219;BMP180;9234;49.344;11.120;2023-11-21T10:29:20;97101.00;;;11.70
18219;BMP180;9234;49.344;11.120;2023-11-21T10:31:50;97099.00;;;11.70
18219;BMP180;9234;49.344;11.120;2023-11-21T10:34:21;97108.00;;;11.80
18219;BMP180;9234;49.344;11.120;2023-11-21T10:36:50;97117.00;;;11.80
18219;BMP180;9234;49.344;11.120;2023-11-21T10:39:19;97103.00;;;11.90
18219;BMP180;9234;49.344;11.120;2023-11-21T10:41:52;97103.00;;;12.00
18219;BMP180;9234;49.344;11.120;2023-11-21T10:44:23;97105.00;;;12.10
18219;BMP180;9234;49.344;11.120;2023-11-21T10:46:54;97105.00;;;12.20
18219;BMP180;9234;49.344;11.120;2023-11-21T10:49:25;97126.00;;;12.30
18219;BMP180;9234;49.344;11.120;2023-11-21T10:51:54;97122.00;;;12.30
18219;BMP180;9234;49.344;11.120;2023-11-21T10:54:25;97125.00;;;12.30
18219;BMP180;9234;49.344;11.120;2023-11-21T10:57:00;97115.00;;;12.30
18219;BMP180;9234;49.344;11.120;2023-11-21T10:59:31;97132.00;;;12.20
18219;BMP180;9234;49.344;11.120;2023-11-21T11:02:02;97119.00;;;12.20
18219;BMP180;9234;49.344;11.120;2023-11-21T11:04:36;97122.00;;;12.20
18219;BMP180;9234;49.344;11.120;2023-11-21T11:07:08;97119.00;;;12.10
18219;BMP180;9234;49.344;11.120;2023-11-21T11:09:39;97114.00;;;12.20
18219;BMP180;9234;49.344;11.120;2023-11-21T11:12:08;97118.00;;;12.30
18219;BMP180;9234;49.344;11.120;2023-11-21T11:14:41;97122.00;;;12.40
18219;BMP180;9234;49.344;11.120;2023-11-21T11:17:11;97127.00;;;12.50
18219;BMP180;9234;49.344;11.120;2023-11-21T11:19:40;97123.00;;;12.60
18219;BMP180;9234;49.344;11.120;2023-11-21T11:22:27;97128.00;;;12.50
18219;BMP180;9234;49.344;11.120;2023-11-21T11:28:12;97124.00;;;12.50
18219;BMP180;9234;49.344;11.120;2023-11-21T11:30:57;97119.00;;;12.50
18219;BMP180;9234;49.344;11.120;2023-11-21T11:33:39;97120.00;;;12.40
18219;BMP180;9234;49.344;11.120;2023-11-21T11:36:17;97120.00;;;12.40
18219;BMP180;9234;49.344;11.120;2023-11-21T11:38:48;97119.00;;;12.40
18219;BMP180;9234;49.344;11.120;2023-11-21T11:41:25;97128.00;;;12.40
18219;BMP180;9234;49.344;11.120;2023-11-21T11:43:57;97128.00;;;12.50
18219;BMP180;9234;49.344;11.120;2023-11-21T11:46:41;97118.00;;;12.50
18219;BMP180;9234;49.344;11.120;2023-11-21T11:49:23;97133.00;;;12.50
18219;BMP180;9234;49.344;11.120;2023-11-21T11:52:37;97126.00;;;12.40
18219;BMP180;9234;49.344;11.120;2023-11-21T11:55:09;97130.00;;;12.40
18219;BMP180;9234;49.344;11.120;2023-11-21T11:57:39;97127.00;;;12.40
18219;BMP180;9234;49.344;11.120;2023-11-21T12:00:15;97117.00;;;12.40
18219;BMP180;9234;49.344;11.120;2023-11-21T12:02:47;97130.00;;;12.40
18219;BMP180;9234;49.344;11.120;2023-11-21T12:05:17;97136.00;;;12.30
18219;BMP180;9234;49.344;11.120;2023-11-21T12:07:51;97142.00;;;12.30
18219;BMP180;9234;49.344;11.120;2023-11-21T12:10:22;97128.00;;;12.30
18219;BMP180;9234;49.344;11.120;2023-11-21T12:12:54;97131.00;;;12.30
18219;BMP180;9234;49.344;11.120;2023-11-21T12:15:24;97125.00;;;12.20
18219;BMP180;9234;49.344;11.120;2023-11-21T12:17:54;97131.00;;;12.20
18219;BMP180;9234;49.344;11.120;2023-11-21T12:20:24;97138.00;;;12.20
18219;BMP180;9234;49.344;11.120;2023-11-21T12:22:54;97141.00;;;12.20
18219;BMP180;9234;49.344;11.120;2023-11-21T12:25:25;97145.00;;;12.10
18219;BMP180;9234;49.344;11.120;2023-11-21T12:27:56;97137.00;;;12.10
18219;BMP180;9234;49.344;11.120;2023-11-21T12:30:27;97135.00;;;12.00
18219;BMP180;9234;49.344;11.120;2023-11-21T12:33:00;97144.00;;;11.90
18219;BMP180;9234;49.344;11.120;2023-11-21T12:35:31;97149.00;;;11.90
18219;BMP180;9234;49.344;11.120;2023-11-21T12:38:02;97152.00;;;11.80
18219;BMP180;9234;49.344;11.120;2023-11-21T12:40:32;97147.00;;;11.80
18219;BMP180;9234;49.344;11.120;2023-11-21T12:43:01;97154.00;;;11.70
18219;BMP180;9234;49.344;11.120;2023-11-21T12:45:31;97150.00;;;11.70
18219;BMP180;9234;49.344;11.120;2023-11-21T12:48:03;97155.00;;;11.70
18219;BMP180;9234;49.344;11.120;2023-11-21T12:50:36;97162.00;;;11.70
18219;BMP180;9234;49.344;11.120;2023-11-21T12:53:06;97151.00;;;11.80
18219;BMP180;9234;49.344;11.120;2023-11-21T12:55:36;97163.00;;;11.80
18219;BMP180;9234;49.344;11.120;2023-11-21T12:58:07;97162.00;;;11.70
18219;BMP180;9234;49.344;11.120;2023-11-21T13:00:41;97158.00;;;11.70
18219;BMP180;9234;49.344;11.120;2023-11-21T13:03:13;97169.00;;;11.60
18219;BMP180;9234;49.344;11.120;2023-11-21T13:05:47;97162.00;;;11.60
18219;BMP180;9234;49.344;11.120;2023-11-21T13:08:19;97167.00;;;11.60
18219;BMP180;9234;49.344;11.120;2023-11-21T13:10:52;97164.00;;;11.60
18219;BMP180;9234;49.344;11.120;2023-11-21T13:13:23;97172.00;;;11.60
18219;BMP180;9234;49.344;11.120;2023-11-21T13:15:54;97166.00;;;11.60
18219;BMP180;9234;49.344;11.120;2023-11-21T13:18:26;97166.00;;;11.60
18219;BMP180;9234;49.344;11.120;2023-11-21T13:20:55;97162.00;;;11.60
18219;BMP180;9234;49.344;11.120;2023-11-21T13:23:26;97182.00;;;11.60
18219;BMP180;9234;49.344;11.120;2023-11-21T13:25:56;97173.00;;;11.70
18219;BMP180;9234;49.344;11.120;2023-11-21T13:28:34;97175.00;;;11.70
18219;BMP180;9234;49.344;11.120;2023-11-21T13:31:05;97167.00;;;11.80
18219;BMP180;9234;49.344;11.120;2023-11-21T13:33:49;97183.00;;;11.80
18219;BMP180;9234;49.344;11.120;2023-11-21T13:36:24;97187.00;;;11.90
18219;BMP180;9234;49.344;11.120;2023-11-21T13:38:57;97188.00;;;12.00
18219;BMP180;9234;49.344;11.120;2023-11-21T13:41:26;97176.00;;;11.90
18219;BMP180;9234;49.344;11.120;2023-11-21T13:43:59;97199.00;;;11.90
18219;BMP180;9234;49.344;11.120;2023-11-21T13:46:31;97194.00;;;11.90
18219;BMP180;9234;49.344;11.120;2023-11-21T13:49:06;97189.00;;;11.80
18219;BMP180;9234;49.344;11.120;2023-11-21T13:51:37;97201.00;;;11.80
18219;BMP180;9234;49.344;11.120;2023-11-21T13:54:12;97197.00;;;11.70
18219;BMP180;9234;49.344;11.120;2023-11-21T13:56:41;97198.00;;;11.70
18219;BMP180;9234;49.344;11.120;2023-11-21T13:59:12;97187.00;;;11.70
18219;BMP180;9234;49.344;11.120;2023-11-21T14:01:48;97198.00;;;11.70
18219;BMP180;9234;49.344;11.120;2023-11-21T14:04:26;97187.00;;;11.70
18219;BMP180;9234;49.344;11.120;2023-11-21T14:07:18;97189.00;;;11.60
18219;BMP180;9234;49.344;11.120;2023-11-21T14:09:53;97194.00;;;11.60
18219;BMP180;9234;49.344;11.120;2023-11-21T14:12:21;97198.00;;;11.60
18219;BMP180;9234;49.344;11.120;2023-11-21T14:14:50;97193.00;;;11.70
18219;BMP180;9234;49.344;11.120;2023-11-21T14:17:18;97203.00;;;11.90
18219;BMP180;9234;49.344;11.120;2023-11-21T14:19:51;97217.00;;;12.20
18219;BMP180;9234;49.344;11.120;2023-11-21T14:22:22;97209.00;;;12.40
18219;BMP180;9234;49.344;11.120;2023-11-21T14:24:52;97207.00;;;12.60
18219;BMP180;9234;49.344;11.120;2023-11-21T14:27:22;97224.00;;;12.60
18219;BMP180;9234;49.344;11.120;2023-11-21T14:29:52;97217.00;;;12.40
18219;BMP180;9234;49.344;11.120;2023-11-21T14:32:20;97226.00;;;12.20
18219;BMP180;9234;49.344;11.120;2023-11-21T14:34:50;97224.00;;;12.10
18219;BMP180;9234;49.344;11.120;2023-11-21T14:37:19;97213.00;;;12.00
18219;BMP180;9234;49.344;11.120;2023-11-21T14:39:47;97211.00;;;12.00